Chesterfield, Michigan
Current Conditions -  °F | °C
As of 11:58 PM on Monday 22 Dec 2014 (Local Time) from KMTC Reporting Station
Clear Clear  
Wind Chill: 32°   Ceiling: Unl
Heat Index: 37°   Visibility: 10mi
Dew Point: 37°   Wind: 6mph
Humidity: 99%   Direction: 80°E
Pressure: 29.87"   Gusts: NA
Location:  42.6875°N, 82.8325°W
Report Text: KMTC 230458Z AUTO 08005KT 10SM CLR 03/03 A2987 RMK AO2 SLP124 T00260025 400381026 $
Loading
Personal Weather Stations






























Interactive Weather Map New forecast layout! Learn more

10-Day Weather Forecast

Advertisements
Track Severe Weather on mobile